Crane, Oregon
Current Conditions -  °F | °C
As of 4:53 PM on Thursday 27 Nov 2014 (Local Time) from KBNO Reporting Station
Broken Clouds Broken Clouds  
Wind Chill: 36°   Ceiling: 10000
Heat Index: 41°   Visibility: 10mi
Dew Point: 38°   Wind: 7mph
Humidity: 89%   Direction: 260°W
Pressure: 30.03"   Gusts: NA
Location:  43.41°N, 118.58°W
Report Text: KBNO 280053Z AUTO 26006KT 10SM BKN100 BKN120 05/03 A3003 RMK AO2 SLP181 T00500033
Loading
Personal Weather Stations






























Interactive Weather Map New forecast layout! Learn more

10-Day Weather Forecast

Advertisements
Track Severe Weather on mobile